Time;durP1;ratioP1;P1;durP2;ratioP2;P2;SDS_P1;SDS_P2;PMS_P1;PMS_P2;Temp;Humidity;BMP_temperature;BMP_pressure;BME280_temperature;BME280_humidity;BME280_pressure;Samples;Min_cycle;Max_cycle;Signal;HPM_P1;HPM_P2
2021/09/21 00:01:28;;;;;;;7.65;2.45;;;;;;;16.42;82.78;100381.47;4899165;29;20053;-91
2021/09/21 00:03:55;;;;;;;2.63;2.42;;;;;;;16.12;84.75;100390.59;4898719;29;20097;-91
2021/09/21 00:06:22;;;;;;;2.10;2.00;;;;;;;16.55;82.77;100382.25;4899042;29;20084;-90
2021/09/21 00:08:49;;;;;;;3.90;2.28;;;;;;;16.44;82.40;100392.72;4898595;29;20112;-90
2021/09/21 00:11:16;;;;;;;3.97;2.50;;;;;;;16.22;85.05;100399.53;4899215;29;20052;-91
2021/09/21 00:13:42;;;;;;;5.25;2.65;;;;;;;16.25;85.19;100395.84;4898924;29;20049;-93
2021/09/21 00:16:09;;;;;;;5.60;2.88;;;;;;;16.30;84.96;100403.38;4898927;29;20045;-93
2021/09/21 00:18:37;;;;;;;4.45;2.22;;;;;;;16.29;85.21;100401.72;4898258;29;20519;-93
2021/09/21 00:21:04;;;;;;;3.47;2.90;;;;;;;16.44;83.60;100396.19;4897512;29;20053;-94
2021/09/21 00:23:30;;;;;;;4.05;2.60;;;;;;;16.37;84.47;100404.66;4898519;29;20496;-93
2021/09/21 00:25:58;;;;;;;6.07;2.78;;;;;;;16.61;83.19;100402.88;4897443;29;20101;-94
2021/09/21 00:28:25;;;;;;;3.00;2.60;;;;;;;16.53;83.32;100394.69;4898894;29;20495;-93
2021/09/21 00:30:54;;;;;;;4.28;3.15;;;;;;;16.73;82.62;100399.41;4897309;29;20050;-93
2021/09/21 00:33:23;;;;;;;6.00;2.72;;;;;;;16.68;83.37;100400.66;4898726;29;20492;-94
2021/09/21 00:35:51;;;;;;;3.05;2.72;;;;;;;16.69;83.71;100403.16;4897018;29;20044;-93
2021/09/21 00:38:20;;;;;;;5.20;2.65;;;;;;;16.77;83.28;100400.81;4898629;29;20052;-93
2021/09/21 00:40:47;;;;;;;6.45;3.13;;;;;;;16.90;82.92;100399.94;4892609;29;20564;-93
2021/09/21 00:43:20;;;;;;;3.30;2.88;;;;;;;16.67;85.18;100402.44;4890091;29;20040;-93
2021/09/21 00:45:49;;;;;;;3.58;2.85;;;;;;;16.91;83.72;100394.56;4896058;29;20456;-93
2021/09/21 00:48:16;;;;;;;5.88;3.33;;;;;;;17.03;83.82;100387.53;4897957;29;20530;-92
2021/09/21 00:50:42;;;;;;;4.57;4.13;;;;;;;17.05;84.35;100390.91;4897590;29;20044;-92
2021/09/21 00:53:09;;;;;;;10.10;4.93;;;;;;;17.11;84.39;100390.44;4897714;29;20112;-92
2021/09/21 00:55:36;;;;;;;8.50;5.70;;;;;;;16.97;85.72;100388.00;4897994;29;20040;-92
2021/09/21 00:58:03;;;;;;;8.13;6.25;;;;;;;17.02;86.00;100383.22;4897122;29;20059;-92
2021/09/21 01:00:30;;;;;;;10.02;6.25;;;;;;;17.06;85.67;100376.78;4897690;29;20045;-92
2021/09/21 01:02:57;;;;;;;7.82;5.93;;;;;;;17.14;85.42;100384.09;4897781;29;20131;-92
2021/09/21 01:05:25;;;;;;;6.60;5.60;;;;;;;17.11;86.04;100373.81;4897464;29;20488;-92
2021/09/21 01:07:52;;;;;;;7.13;5.30;;;;;;;17.12;86.27;100376.31;4896026;29;20056;-91
2021/09/21 01:10:23;;;;;;;5.80;4.35;;;;;;;17.04;85.75;100373.41;4897565;29;20115;-91
2021/09/21 01:12:51;;;;;;;4.18;3.78;;;;;;;17.00;85.93;100367.53;4897347;29;20048;-93
2021/09/21 01:15:18;;;;;;;9.20;4.60;;;;;;;17.16;85.44;100372.50;4897387;29;20044;-93
2021/09/21 01:17:47;;;;;;;7.68;4.75;;;;;;;17.08;85.96;100379.28;4897418;29;20098;-93
2021/09/21 01:20:15;;;;;;;7.95;4.80;;;;;;;16.95;87.21;100379.38;4897819;29;20072;-93
2021/09/21 01:22:42;;;;;;;11.77;5.85;;;;;;;16.88;87.98;100371.06;4897769;29;20072;-91
2021/09/21 01:25:11;;;;;;;5.97;4.90;;;;;;;16.77;89.54;100374.50;4897539;29;20457;-89
2021/09/21 01:27:38;;;;;;;8.18;5.07;;;;;;;16.79;89.54;100376.22;4897537;29;20048;-91
2021/09/21 01:30:07;;;;;;;5.82;5.32;;;;;;;16.64;90.81;100392.13;4897454;29;20044;-90
2021/09/21 01:32:34;;;;;;;7.45;5.15;;;;;;;16.74;90.29;100397.59;4897685;29;20438;-90
2021/09/21 01:35:01;;;;;;;12.88;5.13;;;;;;;16.66;90.83;100406.00;4897285;29;20044;-88
2021/09/21 01:37:28;;;;;;;6.43;5.75;;;;;;;16.83;89.60;100406.59;4897700;29;20052;-89
2021/09/21 01:39:55;;;;;;;7.57;4.80;;;;;;;16.72;90.90;100410.00;4897299;29;20096;-89
2021/09/21 01:42:22;;;;;;;7.50;5.32;;;;;;;16.82;90.17;100420.72;4897617;29;20100;-89
2021/09/21 01:44:49;;;;;;;9.98;6.63;;;;;;;16.90;89.79;100421.00;4897051;29;20048;-89
2021/09/21 01:47:17;;;;;;;7.40;4.22;;;;;;;16.94;89.67;100417.19;4897953;29;20072;-88
2021/09/21 01:52:21;;;;;;;4.47;4.07;;;;;;;16.83;90.37;100415.38;4896872;29;20040;-89
2021/09/21 01:55:06;;;;;;;8.10;4.20;;;;;;;16.82;90.39;100420.72;4897655;29;20048;-91
2021/09/21 02:00:19;;;;;;;5.85;3.67;;;;;;;16.52;93.17;100429.88;4897482;29;20049;-89
2021/09/21 02:02:45;;;;;;;7.90;4.50;;;;;;;16.69;91.36;100418.13;4897274;29;20044;-92
2021/09/21 02:05:12;;;;;;;4.80;4.28;;;;;;;16.67;91.53;100417.38;4896227;29;20060;-90
2021/09/21 02:07:39;;;;;;;6.85;4.00;;;;;;;16.66;91.41;100415.69;4897076;29;20053;-90
2021/09/21 02:10:07;;;;;;;7.40;4.05;;;;;;;16.65;91.73;100406.97;4897272;29;20485;-91
2021/09/21 02:12:33;;;;;;;6.63;4.53;;;;;;;16.66;93.09;100411.28;4896772;29;20037;-91
2021/09/21 02:15:01;;;;;;;6.38;4.25;;;;;;;16.68;93.25;100411.19;4897480;29;20045;-91
2021/09/21 02:17:28;;;;;;;8.48;4.20;;;;;;;16.55;93.97;100411.22;4896834;29;20492;-90
2021/09/21 02:19:55;;;;;;;4.75;4.32;;;;;;;16.62;94.15;100415.09;4899688;29;20120;-88
2021/09/21 02:22:23;;;;;;;4.50;4.10;;;;;;;16.69;94.06;100421.59;4901204;29;20449;-88
2021/09/21 02:24:49;;;;;;;6.03;3.92;;;;;;;16.73;92.92;100423.09;4901154;29;20053;-90
2021/09/21 02:27:16;;;;;;;7.18;4.47;;;;;;;16.73;92.85;100422.25;4900892;29;20064;-87
2021/09/21 02:29:43;;;;;;;10.65;3.55;;;;;;;16.66;93.22;100424.44;4900806;29;20097;-88
2021/09/21 02:32:10;;;;;;;4.25;3.85;;;;;;;16.52;94.24;100429.88;4901023;29;20040;-88
2021/09/21 02:34:37;;;;;;;4.82;4.13;;;;;;;16.61;93.85;100428.34;4899312;29;20041;-88
2021/09/21 02:37:03;;;;;;;7.55;5.38;;;;;;;16.62;93.76;100428.25;4901085;29;20049;-87
2021/09/21 02:39:30;;;;;;;4.18;3.72;;;;;;;16.49;93.79;100419.56;4900142;29;20049;-87
2021/09/21 02:41:57;;;;;;;5.85;3.95;;;;;;;16.40;94.95;100428.94;4900596;29;20065;-89
2021/09/21 02:44:24;;;;;;;7.97;4.70;;;;;;;16.31;96.06;100426.13;4900406;29;20436;-88
2021/09/21 02:46:51;;;;;;;6.97;3.85;;;;;;;16.09;98.55;100417.13;4900805;29;20065;-88
2021/09/21 02:49:17;;;;;;;5.57;3.70;;;;;;;16.04;98.31;100424.50;4900568;29;20045;-89
2021/09/21 02:51:47;;;;;;;5.57;4.40;;;;;;;16.26;97.47;100426.47;4900305;29;20045;-90
2021/09/21 02:54:16;;;;;;;3.40;3.10;;;;;;;16.37;95.77;100431.78;4900298;29;20060;-91
2021/09/21 02:56:43;;;;;;;6.65;3.88;;;;;;;16.38;95.86;100437.91;4899990;29;20385;-92
2021/09/21 02:59:09;;;;;;;4.53;4.07;;;;;;;16.28;96.13;100434.22;4900277;29;20096;-93
2021/09/21 03:01:36;;;;;;;5.03;3.40;;;;;;;16.19;97.24;100440.97;4899721;29;20492;-94
2021/09/21 03:04:09;;;;;;;6.72;3.80;;;;;;;16.07;96.74;100441.84;4900228;29;20045;-93
2021/09/21 03:06:41;;;;;;;5.95;3.88;;;;;;;15.96;97.04;100437.31;4899993;29;20483;-92
2021/09/21 03:11:41;;;;;;;5.32;3.72;;;;;;;15.96;97.10;100439.94;4900015;29;20086;-91
2021/09/21 03:19:27;;;;;;;5.25;4.15;;;;;;;15.94;97.23;100447.13;4899885;29;20048;-93
2021/09/21 03:21:54;;;;;;;11.60;4.32;;;;;;;16.22;95.41;100446.03;4899844;29;20416;-91
2021/09/21 03:24:21;;;;;;;3.97;3.58;;;;;;;16.31;95.16;100447.19;4899792;29;20500;-94
2021/09/21 03:26:48;;;;;;;5.03;4.28;;;;;;;16.26;96.02;100452.75;4899641;29;20044;-94
2021/09/21 03:29:14;;;;;;;6.55;5.50;;;;;;;16.27;96.45;100448.34;4898200;29;20049;-94
2021/09/21 03:31:41;;;;;;;6.53;5.93;;;;;;;16.12;98.65;100448.47;4898602;29;20437;-94
2021/09/21 03:34:08;;;;;;;6.30;5.38;;;;;;;16.10;99.77;100442.47;4899430;29;20048;-93
2021/09/21 03:36:34;;;;;;;7.13;5.95;;;;;;;16.33;97.88;100447.91;4899763;29;20051;-93
2021/09/21 03:39:02;;;;;;;6.07;5.50;;;;;;;16.32;98.36;100443.59;4899121;29;20080;-90
2021/09/21 03:41:28;;;;;;;7.78;6.82;;;;;;;16.08;100.00;100456.66;4899790;29;20044;-91
2021/09/21 03:43:55;;;;;;;7.95;7.15;;;;;;;16.11;100.00;100459.94;4898796;29;20033;-90
2021/09/21 03:46:22;;;;;;;12.18;7.78;;;;;;;16.01;100.00;100456.25;4899361;29;20044;-90
2021/09/21 03:48:49;;;;;;;8.75;7.15;;;;;;;16.03;100.00;100464.03;4898966;29;20559;-91
2021/09/21 03:51:15;;;;;;;10.77;6.57;;;;;;;15.91;100.00;100470.97;4899081;29;20115;-91
2021/09/21 03:53:42;;;;;;;7.90;7.07;;;;;;;15.79;100.00;100472.66;4900490;29;20112;-92
2021/09/21 03:56:09;;;;;;;11.27;6.07;;;;;;;15.73;100.00;100472.25;4899012;29;20416;-91
2021/09/21 03:58:36;;;;;;;7.82;5.60;;;;;;;15.29;100.00;100481.28;4898817;29;20071;-91
2021/09/21 04:01:02;;;;;;;8.43;5.43;;;;;;;15.41;100.00;100477.84;4898562;29;20120;-91
2021/09/21 04:03:29;;;;;;;8.02;5.47;;;;;;;15.54;100.00;100476.06;4898978;29;20124;-92
2021/09/21 04:05:56;;;;;;;7.30;5.40;;;;;;;15.41;100.00;100483.09;4897520;29;20049;-91
2021/09/21 04:08:23;;;;;;;7.45;5.03;;;;;;;15.25;100.00;100483.25;4898591;29;20060;-92
2021/09/21 04:10:50;;;;;;;10.38;5.03;;;;;;;15.31;100.00;100482.00;4898749;29;20081;-84
2021/09/21 04:13:16;;;;;;;5.75;4.43;;;;;;;15.22;100.00;100490.50;4891758;29;20056;-91
2021/09/21 04:15:43;;;;;;;7.65;5.28;;;;;;;15.11;100.00;100497.28;4890557;29;20049;-91
2021/09/21 04:18:10;;;;;;;7.88;6.47;;;;;;;15.08;100.00;100505.38;4886973;29;20098;-91
2021/09/21 04:20:37;;;;;;;8.45;7.20;;;;;;;15.24;100.00;100504.38;4891671;29;20504;-92
2021/09/21 04:23:03;;;;;;;7.15;6.45;;;;;;;15.12;100.00;100498.97;4891730;29;20056;-92
2021/09/21 04:25:31;;;;;;;7.57;5.63;;;;;;;15.05;100.00;100500.31;4889055;29;20044;-91
2021/09/21 04:27:58;;;;;;;8.82;5.63;;;;;;;15.28;100.00;100506.69;4889264;29;20040;-92
2021/09/21 04:30:25;;;;;;;9.65;8.00;;;;;;;15.02;100.00;100505.78;4891475;29;20567;-90
2021/09/21 04:32:53;;;;;;;18.52;16.30;;;;;;;15.01;100.00;100503.22;4890153;29;20044;-94
2021/09/21 04:35:20;;;;;;;14.50;13.00;;;;;;;15.13;100.00;100507.69;4888488;29;20036;-96
2021/09/21 04:37:47;;;;;;;12.85;11.05;;;;;;;15.12;100.00;100514.72;4894761;29;20449;-89
2021/09/21 04:40:15;;;;;;;11.82;10.65;;;;;;;15.32;100.00;100520.47;4892829;29;20048;-88
2021/09/21 04:42:42;;;;;;;15.23;10.55;;;;;;;15.35;100.00;100525.53;4890933;29;20048;-85
2021/09/21 04:45:09;;;;;;;10.73;9.40;;;;;;;15.25;100.00;100527.06;4891988;29;20044;-94
2021/09/21 04:47:35;;;;;;;11.10;8.13;;;;;;;15.22;100.00;100533.34;4893979;29;20080;-91
2021/09/21 04:50:04;;;;;;;11.25;6.38;;;;;;;15.07;100.00;100543.03;4896784;29;20052;-90
2021/09/21 04:52:31;;;;;;;6.90;4.55;;;;;;;15.02;100.00;100550.41;4895679;29;20056;-85
2021/09/21 04:54:57;;;;;;;8.95;6.00;;;;;;;14.83;100.00;100550.72;4893975;29;20045;-84
2021/09/21 04:57:24;;;;;;;6.30;5.63;;;;;;;14.82;100.00;100548.19;4894518;29;20493;-86
2021/09/21 04:59:51;;;;;;;8.38;7.65;;;;;;;15.18;100.00;100558.97;4895968;29;20413;-85
2021/09/21 05:02:18;;;;;;;10.80;7.50;;;;;;;15.08;100.00;100563.13;4897242;29;20483;-89
2021/09/21 05:04:45;;;;;;;10.25;9.25;;;;;;;14.94;100.00;100557.91;4900897;29;20053;-86
2021/09/21 05:07:11;;;;;;;11.10;8.60;;;;;;;14.96;100.00;100560.44;4911353;29;20049;-86
2021/09/21 05:09:38;;;;;;;9.65;8.50;;;;;;;14.84;100.00;100562.03;4903971;29;20088;-89
2021/09/21 05:12:08;;;;;;;8.98;7.38;;;;;;;14.99;100.00;100568.97;4891484;29;20052;-93
2021/09/21 05:14:35;;;;;;;9.48;6.82;;;;;;;15.07;100.00;100573.72;4894233;29;20044;-84
2021/09/21 05:17:01;;;;;;;10.65;6.85;;;;;;;15.29;100.00;100574.06;4893961;29;20041;-87
2021/09/21 05:19:28;;;;;;;10.77;7.03;;;;;;;15.30;100.00;100588.03;4901621;29;20465;-90
2021/09/21 05:21:55;;;;;;;10.45;7.10;;;;;;;15.31;100.00;100592.31;4892314;29;20052;-93
2021/09/21 05:24:22;;;;;;;11.80;6.45;;;;;;;15.41;100.00;100590.78;4892676;29;20052;-92
2021/09/21 05:26:49;;;;;;;8.10;6.50;;;;;;;15.40;100.00;100591.75;4917343;29;20024;-91
2021/09/21 05:29:15;;;;;;;9.25;6.53;;;;;;;15.42;100.00;100585.44;4911101;29;20116;-92
2021/09/21 05:31:42;;;;;;;8.88;7.20;;;;;;;15.53;100.00;100591.78;4898078;29;20100;-90
2021/09/21 05:34:09;;;;;;;10.43;6.25;;;;;;;15.60;100.00;100593.91;4898205;29;20565;-92
2021/09/21 05:36:36;;;;;;;10.10;8.15;;;;;;;15.45;100.00;100592.28;4917877;29;20036;-95
2021/09/21 05:39:03;;;;;;;9.02;7.50;;;;;;;15.57;100.00;100591.47;4918944;29;20052;-96
2021/09/21 05:41:29;;;;;;;9.85;7.25;;;;;;;15.66;100.00;100598.81;4905704;29;20052;-96
2021/09/21 05:43:56;;;;;;;6.22;5.15;;;;;;;15.57;100.00;100596.75;4909431;29;20041;-96
2021/09/21 05:46:23;;;;;;;7.88;5.47;;;;;;;15.72;100.00;100594.94;4901553;29;20044;-96
2021/09/21 05:48:52;;;;;;;7.20;5.70;;;;;;;15.58;100.00;100603.69;4902872;29;20472;-96
2021/09/21 05:51:18;;;;;;;7.55;5.13;;;;;;;15.50;100.00;100603.34;4902170;29;20044;-93
2021/09/21 05:53:49;;;;;;;7.57;4.60;;;;;;;15.70;100.00;100597.63;4906653;29;20036;-88
2021/09/21 05:56:16;;;;;;;8.95;5.07;;;;;;;15.63;99.82;100600.78;4910599;29;20136;-96
2021/09/21 05:58:43;;;;;;;8.10;4.00;;;;;;;16.00;96.21;100593.09;4908804;29;20048;-96
2021/09/21 06:01:09;;;;;;;7.20;4.57;;;;;;;15.78;96.16;100585.81;4905067;29;20096;-96
2021/09/21 06:03:36;;;;;;;5.60;4.65;;;;;;;15.91;94.68;100587.50;4908776;29;20057;-96
2021/09/21 06:06:04;;;;;;;9.52;4.75;;;;;;;16.10;94.63;100599.44;4909990;29;20051;-96
2021/09/21 06:08:31;;;;;;;7.78;5.40;;;;;;;16.02;94.76;100599.91;4908930;29;20044;-96
2021/09/21 06:10:57;;;;;;;14.73;7.03;;;;;;;16.08;94.45;100598.66;4907789;29;20073;-96
2021/09/21 06:13:24;;;;;;;10.00;7.05;;;;;;;16.19;93.27;100599.66;4906813;29;20036;-96
2021/09/21 06:15:51;;;;;;;10.77;6.32;;;;;;;16.17;94.35;100614.66;4907605;29;20052;-96
2021/09/21 06:18:18;;;;;;;7.80;6.00;;;;;;;16.20;94.75;100614.47;4908349;29;20060;-96
2021/09/21 06:20:46;;;;;;;7.10;5.82;;;;;;;16.21;94.60;100610.91;4910272;29;20060;-96
2021/09/21 06:23:18;;;;;;;8.50;6.60;;;;;;;16.96;89.64;100604.88;4912830;29;20053;-96
2021/09/21 06:25:45;;;;;;;10.23;6.38;;;;;;;16.35;92.96;100609.09;4913783;29;20040;-96
2021/09/21 06:28:12;;;;;;;15.57;6.22;;;;;;;16.38;92.85;100611.53;4911043;29;20051;-96
2021/09/21 06:30:39;;;;;;;12.60;6.07;;;;;;;16.62;92.98;100620.38;4915149;29;20052;-96
2021/09/21 06:33:10;;;;;;;10.02;5.88;;;;;;;17.14;88.53;100629.91;4916838;29;20104;-97
2021/09/21 06:35:37;;;;;;;10.18;5.82;;;;;;;17.10;87.88;100625.81;4922498;29;20064;-96
2021/09/21 06:38:05;;;;;;;8.88;6.32;;;;;;;17.48;84.42;100636.25;4910583;29;20048;-96
2021/09/21 06:40:35;;;;;;;7.00;6.05;;;;;;;17.37;85.05;100637.97;4903785;29;20131;-96
2021/09/21 06:43:05;;;;;;;9.57;5.50;;;;;;;16.92;87.80;100640.28;4902873;29;20142;-96
2021/09/21 06:45:32;;;;;;;6.95;6.25;;;;;;;16.88;87.42;100630.91;4902143;29;20053;-96
2021/09/21 06:48:05;;;;;;;7.25;5.43;;;;;;;16.44;89.21;100637.44;4897901;29;20049;-96
2021/09/21 06:50:35;;;;;;;11.98;6.78;;;;;;;16.34;90.28;100650.34;4902894;29;20045;-96
2021/09/21 06:53:02;;;;;;;7.90;6.82;;;;;;;16.85;88.13;100653.03;4892248;29;20608;-96
2021/09/21 06:55:29;;;;;;;15.85;6.97;;;;;;;17.04;85.92;100657.84;4905251;29;20413;-96
2021/09/21 06:57:57;;;;;;;8.48;7.60;;;;;;;16.68;86.88;100662.06;4903042;29;20059;-96
2021/09/21 07:00:23;;;;;;;10.93;7.03;;;;;;;16.67;87.61;100668.28;4901040;29;20041;-96
2021/09/21 07:02:54;;;;;;;7.80;6.72;;;;;;;16.50;88.11;100679.09;4902901;29;20123;-96
2021/09/21 07:05:29;;;;;;;19.20;7.43;;;;;;;16.63;88.47;100673.88;4902023;29;20067;-96
2021/09/21 07:07:56;;;;;;;13.68;10.13;;;;;;;16.93;87.08;100674.41;4903387;29;20063;-96
2021/09/21 07:10:22;;;;;;;11.38;9.73;;;;;;;17.26;85.24;100679.09;4902253;29;20141;-96
2021/09/21 07:12:49;;;;;;;11.25;9.60;;;;;;;17.32;85.29;100666.44;4907953;29;20043;-96
2021/09/21 07:15:23;;;;;;;14.02;11.75;;;;;;;17.31;85.67;100668.25;4912384;29;20056;-96
2021/09/21 07:17:52;;;;;;;14.73;12.65;;;;;;;17.03;86.92;100666.69;4900536;29;20053;-96
2021/09/21 07:20:21;;;;;;;17.08;11.52;;;;;;;17.50;85.14;100665.13;4914457;29;20112;-96
2021/09/21 07:22:53;;;;;;;15.27;13.70;;;;;;;18.03;82.04;100657.72;4917841;29;20069;-96
2021/09/21 07:25:23;;;;;;;15.90;13.18;;;;;;;18.72;77.92;100657.78;4920681;29;20104;-96
2021/09/21 07:27:54;;;;;;;15.27;13.70;;;;;;;18.18;80.30;100661.88;4912684;29;20051;-96
2021/09/21 07:30:21;;;;;;;22.08;14.35;;;;;;;18.19;80.26;100657.41;4911612;29;20045;-96
2021/09/21 07:32:48;;;;;;;14.35;11.55;;;;;;;17.41;83.23;100655.22;4912461;29;20101;-96
2021/09/21 07:35:18;;;;;;;20.02;13.35;;;;;;;17.86;81.51;100655.50;4919955;29;20049;-96
2021/09/21 07:37:45;;;;;;;18.88;13.40;;;;;;;17.46;84.53;100655.75;4919903;29;20032;-96
2021/09/21 07:40:12;;;;;;;15.98;13.95;;;;;;;18.03;80.75;100655.09;4919183;29;20033;-96
2021/09/21 07:42:39;;;;;;;18.67;14.82;;;;;;;18.47;77.92;100661.44;4919638;29;20116;-97
2021/09/21 07:45:08;;;;;;;18.48;15.43;;;;;;;18.79;75.68;100659.00;4921895;29;20113;-96
2021/09/21 07:47:48;;;;;;;21.10;16.70;;;;;;;19.36;73.55;100663.28;4923348;29;20076;-96
2021/09/21 07:50:31;;;;;;;;;;;;;;;;;;;;;
2021/09/21 07:56:48;;;;;;;18.92;17.02;;;;;;;19.06;72.98;100691.19;4900468;29;20071;-96
2021/09/21 07:59:19;;;;;;;17.90;15.43;;;;;;;19.19;72.98;100687.59;4906278;29;20065;-96
2021/09/21 08:01:46;;;;;;;17.58;15.73;;;;;;;18.75;75.42;100698.03;4907410;29;20055;-96
2021/09/21 08:04:19;;;;;;;18.77;16.42;;;;;;;18.88;74.78;100692.63;4915285;29;20493;-96
2021/09/21 08:06:52;;;;;;;18.50;16.70;;;;;;;19.28;72.61;100700.06;4920239;29;20045;-96
2021/09/21 08:09:24;;;;;;;20.27;17.13;;;;;;;19.56;70.74;100704.00;4919310;29;20057;-96
2021/09/21 08:11:51;;;;;;;16.63;14.45;;;;;;;19.86;69.91;100708.63;4915542;29;20076;-96
2021/09/21 08:14:17;;;;;;;17.23;15.38;;;;;;;19.60;70.56;100708.09;4916433;29;20048;-96
2021/09/21 08:16:47;;;;;;;17.65;13.77;;;;;;;19.75;71.04;100711.31;4916594;29;20104;-97
2021/09/21 08:19:14;;;;;;;16.10;14.43;;;;;;;18.77;74.29;100725.16;4918208;29;20048;-96
2021/09/21 08:21:51;;;;;;;18.20;15.00;;;;;;;18.71;74.63;100735.34;4919426;29;20048;-96
2021/09/21 08:24:30;;;;;;;17.08;13.25;;;;;;;18.62;75.13;100736.84;4919334;29;20045;-96
2021/09/21 08:26:58;;;;;;;16.25;14.40;;;;;;;18.16;78.14;100737.63;4919609;29;20032;-96
2021/09/21 08:29:25;;;;;;;17.92;14.57;;;;;;;18.29;78.13;100743.69;4916717;29;20480;-96
2021/09/21 08:31:52;;;;;;;14.32;12.93;;;;;;;18.57;77.48;100746.91;4908508;29;20080;-96
2021/09/21 08:34:19;;;;;;;12.38;11.07;;;;;;;18.44;78.28;100751.44;4906454;29;20052;-96
2021/09/21 08:37:11;;;;;;;18.10;13.23;;;;;;;17.98;79.57;100754.81;4919582;29;20049;-96
2021/09/21 08:39:38;;;;;;;14.27;12.27;;;;;;;18.14;79.27;100759.81;4912245;29;20451;-96
2021/09/21 08:42:15;;;;;;;24.80;12.43;;;;;;;18.16;79.47;100764.03;4912595;29;20065;-96
2021/09/21 08:44:43;;;;;;;14.27;12.85;;;;;;;17.76;81.44;100766.09;4922392;29;20032;-96
2021/09/21 08:48:06;;;;;;;21.65;11.75;;;;;;;18.04;79.07;100772.84;4916713;29;20044;-96
2021/09/21 08:50:38;;;;;;;12.75;11.55;;;;;;;18.41;77.40;100763.06;4914404;29;20052;-96
2021/09/21 08:53:06;;;;;;;11.18;9.98;;;;;;;18.38;78.09;100767.75;4918175;29;20108;-96
2021/09/21 08:55:33;;;;;;;13.85;11.93;;;;;;;18.87;75.18;100774.63;4916702;29;20051;-96
2021/09/21 08:58:00;;;;;;;11.93;10.15;;;;;;;18.85;75.43;100761.53;4907502;29;20475;-95
2021/09/21 09:00:32;;;;;;;17.63;12.38;;;;;;;18.41;76.70;100775.41;4903375;29;20062;-96
2021/09/21 09:03:27;;;;;;;12.88;11.32;;;;;;;19.06;74.19;100770.44;4908567;29;20178;-96
2021/09/21 09:06:07;;;;;;;12.75;10.65;;;;;;;19.56;72.12;100772.75;4898257;29;20033;-96
2021/09/21 09:08:38;;;;;;;11.27;10.13;;;;;;;18.79;74.45;100773.41;4905968;29;20041;-96
2021/09/21 09:11:09;;;;;;;11.77;10.57;;;;;;;19.61;71.01;100762.69;4913472;29;20131;-96
2021/09/21 09:13:37;;;;;;;13.23;11.93;;;;;;;19.62;69.14;100769.66;4908280;29;20764;-96
2021/09/21 09:16:11;;;;;;;12.88;11.77;;;;;;;19.59;69.45;100772.53;4906102;29;20040;-96
2021/09/21 09:18:39;;;;;;;13.25;11.43;;;;;;;20.59;65.49;100768.75;4911072;29;20048;-96
2021/09/21 09:21:06;;;;;;;15.88;12.88;;;;;;;19.52;68.50;100777.44;4911030;29;20056;-96
2021/09/21 09:23:33;;;;;;;14.45;12.90;;;;;;;20.05;67.40;100764.38;4918436;29;20041;-96
2021/09/21 09:26:02;;;;;;;14.07;11.63;;;;;;;19.81;68.20;100769.84;4919628;29;20033;-96
2021/09/21 09:28:28;;;;;;;16.42;12.50;;;;;;;19.51;69.71;100759.91;4911176;29;20112;-96
2021/09/21 09:30:56;;;;;;;12.00;10.73;;;;;;;19.74;69.79;100755.44;4910410;29;20036;-96
2021/09/21 09:33:23;;;;;;;12.77;11.65;;;;;;;19.60;69.52;100753.91;4907949;29;20048;-96
2021/09/21 09:35:51;;;;;;;12.95;11.75;;;;;;;19.69;70.03;100754.97;4922851;29;20036;-96
2021/09/21 09:38:22;;;;;;;14.93;12.98;;;;;;;19.79;68.17;100747.13;4925273;29;20044;-96
2021/09/21 09:40:54;;;;;;;11.82;10.73;;;;;;;20.44;65.90;100753.28;4923522;29;20066;-96
2021/09/21 09:43:26;;;;;;;12.88;11.45;;;;;;;20.16;66.39;100760.84;4912635;29;20055;-96
2021/09/21 09:45:55;;;;;;;11.80;10.70;;;;;;;20.21;66.80;100758.69;4914683;29;20093;-96
2021/09/21 09:48:37;;;;;;;12.00;10.73;;;;;;;20.52;65.46;100766.78;4904018;29;20041;-96
2021/09/21 09:51:04;;;;;;;10.38;9.13;;;;;;;20.46;65.60;100765.47;4905736;29;20055;-96
2021/09/21 09:53:34;;;;;;;13.30;10.63;;;;;;;19.53;67.72;100770.34;4929482;29;20066;-97
2021/09/21 09:56:03;;;;;;;8.00;7.22;;;;;;;19.79;66.77;100777.06;4929899;29;20055;-96
2021/09/21 09:58:31;;;;;;;9.68;6.20;;;;;;;20.61;62.81;100765.97;4906850;29;20059;-96
2021/09/21 10:00:57;;;;;;;7.30;6.50;;;;;;;20.65;61.82;100772.69;4902024;29;20044;-96
2021/09/21 10:03:30;;;;;;;14.88;8.60;;;;;;;20.36;64.20;100773.31;4905500;29;20100;-96
2021/09/21 10:05:57;;;;;;;11.77;9.63;;;;;;;20.18;65.08;100777.44;4910578;29;20044;-96
2021/09/21 10:08:25;;;;;;;14.77;6.85;;;;;;;20.41;65.18;100768.47;4908682;29;20048;-96
2021/09/21 10:10:53;;;;;;;7.35;6.20;;;;;;;19.68;66.37;100776.25;4908357;29;20044;-96
2021/09/21 10:13:21;;;;;;;9.15;6.53;;;;;;;19.93;65.40;100783.06;4906331;29;20140;-96
2021/09/21 10:15:50;;;;;;;7.15;6.28;;;;;;;20.10;64.24;100782.53;4906845;29;20056;-96
2021/09/21 10:18:21;;;;;;;11.27;6.65;;;;;;;20.81;62.76;100782.84;4910293;29;20052;-96
2021/09/21 10:21:01;;;;;;;15.68;6.45;;;;;;;21.57;59.11;100780.75;4913197;29;20049;-96
2021/09/21 10:23:36;;;;;;;7.15;6.03;;;;;;;20.79;61.46;100783.00;4916083;29;20052;-97
2021/09/21 10:26:19;;;;;;;8.98;6.00;;;;;;;21.05;60.13;100787.91;4914014;29;20044;-96
2021/09/21 10:28:49;;;;;;;9.90;5.82;;;;;;;20.78;61.26;100789.25;4912033;29;20044;-96
2021/09/21 10:31:19;;;;;;;7.20;6.13;;;;;;;21.26;59.48;100785.22;4911454;29;20195;-96
2021/09/21 10:33:47;;;;;;;8.95;5.60;;;;;;;21.37;58.78;100795.75;4908562;29;20048;-96
2021/09/21 10:36:21;;;;;;;9.60;5.97;;;;;;;20.79;60.17;100798.06;4909097;29;20045;-96
2021/09/21 10:39:08;;;;;;;5.40;4.63;;;;;;;20.70;60.34;100802.31;4902785;29;20057;-96
2021/09/21 10:42:10;;;;;;;7.75;4.88;;;;;;;21.83;56.98;100795.19;4905051;29;20056;-96
2021/09/21 10:44:49;;;;;;;6.30;4.68;;;;;;;21.45;58.36;100791.47;4900554;29;20060;-96
2021/09/21 10:47:31;;;;;;;9.93;5.95;;;;;;;20.95;59.70;100794.94;4907043;29;20568;-96
2021/09/21 10:50:18;;;;;;;6.18;4.40;;;;;;;21.00;59.38;100798.06;4904104;29;20092;-96
2021/09/21 10:53:05;;;;;;;5.22;4.43;;;;;;;20.26;61.50;100798.84;4887653;29;20080;-96
2021/09/21 10:55:38;;;;;;;8.43;5.25;;;;;;;20.90;59.82;100800.63;4888476;29;20045;-96
2021/09/21 10:58:17;;;;;;;4.25;3.40;;;;;;;21.37;58.31;100801.91;4885076;29;20076;-96
2021/09/21 11:00:45;;;;;;;7.63;4.10;;;;;;;21.33;58.32;100797.84;4884265;29;20132;-96
2021/09/21 11:03:13;;;;;;;5.07;4.25;;;;;;;20.62;58.74;100796.81;4898121;29;20108;-96
2021/09/21 11:05:43;;;;;;;8.00;4.18;;;;;;;20.82;57.90;100790.66;4906180;29;20045;-96
2021/09/21 11:12:09;;;;;;;10.10;4.32;;;;;;;21.36;57.09;100778.16;4897011;29;20081;-96
2021/09/21 11:14:42;;;;;;;4.85;3.60;;;;;;;22.49;52.92;100774.22;4910187;29;20051;-96
2021/09/21 11:17:13;;;;;;;7.47;4.05;;;;;;;22.60;52.11;100778.53;4909768;29;20060;-96
2021/09/21 11:19:45;;;;;;;7.63;3.85;;;;;;;22.85;50.96;100779.78;4915765;29;20051;-93
2021/09/21 11:22:15;;;;;;;4.85;3.88;;;;;;;22.59;51.80;100776.03;4921055;29;20052;-96
2021/09/21 11:24:50;;;;;;;9.98;4.82;;;;;;;22.31;52.93;100775.03;4921170;29;20059;-96
2021/09/21 11:27:19;;;;;;;6.47;3.92;;;;;;;22.65;51.99;100778.13;4912969;29;20116;-96
2021/09/21 11:29:46;;;;;;;5.75;3.97;;;;;;;22.81;51.13;100783.69;4917063;29;20032;-96
2021/09/21 11:32:21;;;;;;;5.13;3.20;;;;;;;22.18;52.46;100780.66;4920081;29;20028;-93
2021/09/21 11:35:07;;;;;;;4.78;3.60;;;;;;;21.75;52.43;100781.78;4914581;29;20642;-89
2021/09/21 11:37:35;;;;;;;3.05;2.70;;;;;;;21.85;51.19;100774.69;4900421;29;20053;-96
2021/09/21 11:40:03;;;;;;;4.15;2.78;;;;;;;22.21;50.28;100781.22;4900456;29;20096;-96
2021/09/21 11:42:32;;;;;;;2.50;2.30;;;;;;;22.78;49.06;100780.47;4892122;29;20128;-94
2021/09/21 11:45:10;;;;;;;8.65;3.55;;;;;;;22.94;48.90;100778.09;4891673;29;20470;-91
2021/09/21 11:47:39;;;;;;;6.15;3.28;;;;;;;23.16;48.18;100782.22;4891470;29;20497;-93
2021/09/21 11:50:20;;;;;;;5.93;3.33;;;;;;;23.55;46.67;100787.41;4884949;29;20544;-90